createdAt,value
2019-06-20T00:00:53.752Z,11.40
2019-06-20T00:03:22.908Z,15.50
2019-06-20T00:05:52.168Z,15.13
2019-06-20T00:08:21.305Z,12.53
2019-06-20T00:10:50.461Z,19.47
2019-06-20T00:13:19.689Z,12.90
2019-06-20T00:15:48.908Z,11.50
2019-06-20T00:18:18.090Z,11.90
2019-06-20T00:20:47.317Z,13.73
2019-06-20T00:23:16.589Z,12.57
2019-06-20T00:25:45.721Z,15.60
2019-06-20T00:28:14.875Z,13.00
2019-06-20T00:30:44.016Z,15.70
2019-06-20T00:33:13.150Z,13.40
2019-06-20T00:35:42.316Z,10.30
2019-06-20T00:38:11.529Z,13.13
2019-06-20T00:40:40.680Z,13.40
2019-06-20T00:43:17.623Z,16.80
2019-06-20T00:45:41.009Z,12.13
2019-06-20T00:48:10.186Z,13.93
2019-06-20T00:50:39.312Z,11.10
2019-06-20T00:53:08.428Z,9.23
2019-06-20T00:55:37.567Z,11.27
2019-06-20T00:58:06.816Z,9.20
2019-06-20T01:00:35.956Z,12.57
2019-06-20T01:03:05.413Z,13.17
2019-06-20T01:05:34.544Z,11.10
2019-06-20T01:08:03.853Z,15.10
2019-06-20T01:10:33.104Z,11.03
2019-06-20T01:13:02.461Z,10.80
2019-06-20T01:15:31.729Z,14.43
2019-06-20T01:18:02.357Z,12.87
2019-06-20T01:20:31.489Z,17.00
2019-06-20T01:23:00.886Z,11.57
2019-06-20T01:25:36.910Z,12.47
2019-06-20T01:28:07.556Z,9.77
2019-06-20T01:30:36.774Z,12.23
2019-06-20T01:33:06.710Z,10.07
2019-06-20T01:35:35.856Z,13.80
2019-06-20T01:38:05.084Z,8.13
2019-06-20T01:40:34.239Z,8.37
2019-06-20T01:43:03.466Z,10.53
2019-06-20T01:45:32.583Z,12.40
2019-06-20T01:48:01.925Z,8.87
2019-06-20T01:50:31.044Z,10.37
2019-06-20T01:53:00.190Z,8.47
2019-06-20T01:55:29.412Z,8.67
2019-06-20T01:57:58.821Z,7.80
2019-06-20T02:00:56.429Z,14.63
2019-06-20T02:03:25.777Z,6.77
2019-06-20T02:05:54.909Z,9.10
2019-06-20T02:08:24.062Z,9.10
2019-06-20T02:10:53.176Z,8.10
2019-06-20T02:13:22.826Z,9.07
2019-06-20T02:15:51.981Z,14.53
2019-06-20T02:18:21.202Z,22.17
2019-06-20T02:20:53.053Z,15.97
2019-06-20T02:23:22.751Z,14.17
2019-06-20T02:25:52.254Z,16.40
2019-06-20T02:28:21.525Z,12.90
2019-06-20T02:30:51.170Z,13.53
2019-06-20T02:33:20.349Z,10.60
2019-06-20T02:35:49.520Z,14.23
2019-06-20T02:38:18.680Z,14.13
2019-06-20T02:40:47.772Z,12.80
2019-06-20T02:43:16.945Z,9.63
2019-06-20T02:45:46.078Z,10.47
2019-06-20T02:48:15.375Z,15.63
2019-06-20T02:50:44.576Z,11.83
2019-06-20T02:53:15.519Z,11.23
2019-06-20T02:55:44.651Z,10.33
2019-06-20T02:58:14.941Z,10.40
2019-06-20T03:00:55.657Z,11.73
2019-06-20T03:03:25.689Z,11.20
2019-06-20T03:05:54.835Z,13.43
2019-06-20T03:08:24.241Z,9.23
2019-06-20T03:10:53.365Z,13.80
2019-06-20T03:13:22.552Z,11.57
2019-06-20T03:15:51.772Z,21.47
2019-06-20T03:18:20.907Z,10.20
2019-06-20T03:20:50.119Z,9.37
2019-06-20T03:23:20.227Z,11.28
2019-06-20T03:25:49.513Z,8.17
2019-06-20T03:28:18.713Z,12.57
2019-06-20T03:30:47.894Z,14.80
2019-06-20T03:33:17.075Z,12.63
2019-06-20T03:35:46.212Z,13.90
2019-06-20T03:38:15.428Z,14.20
2019-06-20T03:40:44.543Z,11.63
2019-06-20T03:43:13.696Z,6.90
2019-06-20T03:45:42.811Z,10.93
2019-06-20T03:48:11.953Z,9.17
2019-06-20T03:50:41.178Z,11.37
2019-06-20T03:53:10.327Z,10.60
2019-06-20T03:55:39.456Z,10.00
2019-06-20T03:58:08.605Z,10.60
2019-06-20T04:00:38.016Z,9.03
2019-06-20T04:03:07.450Z,13.50
2019-06-20T04:05:37.130Z,11.07
2019-06-20T04:08:06.341Z,10.03
2019-06-20T04:10:35.929Z,19.30
2019-06-20T04:13:05.412Z,9.43
2019-06-20T04:15:34.956Z,14.33
2019-06-20T04:18:04.276Z,10.20
2019-06-20T04:20:33.409Z,6.20
2019-06-20T04:23:02.524Z,5.33
2019-06-20T04:25:32.007Z,5.77
2019-06-20T04:28:01.191Z,9.27
2019-06-20T04:30:30.336Z,8.83
2019-06-20T04:32:59.467Z,11.00
2019-06-20T04:35:28.629Z,11.40
2019-06-20T04:37:57.738Z,7.10
2019-06-20T04:40:26.888Z,8.83
2019-06-20T04:42:56.000Z,3.90
2019-06-20T04:45:37.484Z,12.20
2019-06-20T04:48:06.620Z,9.23
2019-06-20T04:50:36.133Z,6.57
2019-06-20T04:53:05.456Z,4.37
2019-06-20T04:55:34.563Z,10.27
2019-06-20T04:58:03.813Z,5.63
2019-06-20T05:00:32.992Z,4.60
2019-06-20T05:03:02.366Z,8.13
2019-06-20T05:05:31.792Z,9.63
2019-06-20T05:08:00.900Z,9.43
2019-06-20T05:10:30.165Z,5.03
2019-06-20T05:12:59.287Z,4.67
2019-06-20T05:15:28.437Z,6.60
2019-06-20T05:17:57.598Z,12.90
2019-06-20T05:20:26.809Z,5.10
2019-06-20T05:22:55.965Z,8.93
2019-06-20T05:25:25.148Z,7.37
2019-06-20T05:27:54.372Z,5.60
2019-06-20T05:30:23.784Z,8.13
2019-06-20T05:32:53.004Z,11.07
2019-06-20T05:35:22.222Z,5.30
2019-06-20T05:37:51.335Z,6.13
2019-06-20T05:40:20.800Z,4.23
2019-06-20T05:42:49.922Z,11.43
2019-06-20T05:45:19.137Z,6.00
2019-06-20T05:47:48.265Z,6.13
2019-06-20T05:50:17.610Z,4.80
2019-06-20T05:52:46.744Z,8.60
2019-06-20T05:55:15.882Z,6.37
2019-06-20T05:57:46.592Z,5.73
2019-06-20T06:00:17.443Z,6.43
2019-06-20T06:02:46.629Z,6.83
2019-06-20T06:05:15.985Z,6.43
2019-06-20T06:07:45.360Z,4.53
2019-06-20T06:10:14.818Z,4.00
2019-06-20T06:12:45.127Z,5.83
2019-06-20T06:15:15.248Z,4.13
2019-06-20T06:17:44.399Z,5.30
2019-06-20T06:20:13.927Z,5.10
2019-06-20T06:22:44.749Z,4.90
2019-06-20T06:25:15.276Z,6.90
2019-06-20T06:27:44.393Z,6.73
2019-06-20T06:30:14.100Z,9.70
2019-06-20T06:32:43.358Z,4.50
2019-06-20T06:35:14.458Z,4.77
2019-06-20T06:37:43.683Z,4.23
2019-06-20T06:40:13.817Z,7.17
2019-06-20T06:42:42.935Z,4.10
2019-06-20T06:45:12.970Z,6.20
2019-06-20T06:47:42.156Z,10.40
2019-06-20T06:50:11.792Z,4.07
2019-06-20T06:52:40.921Z,5.60
2019-06-20T06:55:10.314Z,4.50
2019-06-20T06:57:39.531Z,5.10
2019-06-20T07:00:10.351Z,6.20
2019-06-20T07:02:39.583Z,4.90
2019-06-20T07:05:09.137Z,5.10
2019-06-20T07:07:38.473Z,5.80
2019-06-20T07:10:08.562Z,12.80
2019-06-20T07:12:37.765Z,4.67
2019-06-20T07:15:08.641Z,8.10
2019-06-20T07:17:37.837Z,4.07
2019-06-20T07:20:08.308Z,5.47
2019-06-20T07:22:37.484Z,6.37
2019-06-20T07:25:07.516Z,6.37
2019-06-20T07:27:36.835Z,4.07
2019-06-20T07:30:08.172Z,4.53
2019-06-20T07:32:37.399Z,4.10
2019-06-20T07:35:07.434Z,3.87
2019-06-20T07:37:36.740Z,3.40
2019-06-20T07:40:06.758Z,2.50
2019-06-20T07:42:35.975Z,3.17
2019-06-20T07:45:06.041Z,2.50
2019-06-20T07:47:35.221Z,2.43
2019-06-20T07:50:05.509Z,3.30
2019-06-20T07:52:34.809Z,4.33
2019-06-20T07:55:04.317Z,5.47
2019-06-20T07:57:33.557Z,3.67
2019-06-20T08:00:02.944Z,3.13
2019-06-20T08:02:32.142Z,1.90
2019-06-20T08:05:01.317Z,3.70
2019-06-20T08:07:30.468Z,3.40
2019-06-20T08:09:59.599Z,3.37
2019-06-20T08:12:28.856Z,5.30
2019-06-20T08:15:13.755Z,1.90
2019-06-20T08:17:35.351Z,4.13
2019-06-20T08:19:59.785Z,2.30
2019-06-20T08:22:30.038Z,17.13
2019-06-20T08:24:59.269Z,4.90
2019-06-20T08:27:46.430Z,2.90
2019-06-20T08:30:15.942Z,2.93
2019-06-20T08:32:45.172Z,2.63
2019-06-20T08:35:14.614Z,4.23
2019-06-20T08:37:43.927Z,4.00
2019-06-20T08:40:13.149Z,3.30
2019-06-20T08:42:42.391Z,2.70
2019-06-20T08:45:11.898Z,4.03
2019-06-20T08:47:41.064Z,5.90
2019-06-20T08:50:10.568Z,3.47
2019-06-20T08:52:39.710Z,2.47
2019-06-20T08:55:08.998Z,5.30
2019-06-20T08:57:38.177Z,3.00
2019-06-20T09:00:08.086Z,5.43
2019-06-20T09:02:37.220Z,5.67
2019-06-20T09:05:06.520Z,3.30
2019-06-20T09:07:35.853Z,4.73
2019-06-20T09:10:05.858Z,2.93
2019-06-20T09:12:35.090Z,3.83
2019-06-20T09:15:06.205Z,5.70
2019-06-20T09:17:36.833Z,5.10
2019-06-20T09:20:07.351Z,3.47
2019-06-20T09:22:36.539Z,1.90
2019-06-20T09:25:07.035Z,7.60
2019-06-20T09:27:36.278Z,2.20
2019-06-20T09:30:06.806Z,4.90
2019-06-20T09:32:36.041Z,5.47
2019-06-20T09:35:05.740Z,3.23
2019-06-20T09:37:35.000Z,6.57
2019-06-20T09:40:04.757Z,3.40
2019-06-20T09:42:36.772Z,2.40
2019-06-20T09:45:05.664Z,2.70
2019-06-20T09:47:34.854Z,3.33
2019-06-20T09:50:05.649Z,3.23
2019-06-20T09:52:34.968Z,5.50
2019-06-20T09:55:04.354Z,5.63
2019-06-20T09:57:33.533Z,3.03
2019-06-20T10:00:09.723Z,4.60
2019-06-20T10:02:33.591Z,4.43
2019-06-20T10:05:02.756Z,3.47
2019-06-20T10:07:32.011Z,5.20
2019-06-20T10:10:01.557Z,3.07
2019-06-20T10:12:30.708Z,4.07
2019-06-20T10:14:59.934Z,5.67
2019-06-20T10:17:29.097Z,3.67
2019-06-20T10:19:58.317Z,2.30
2019-06-20T10:22:27.498Z,2.90
2019-06-20T10:24:57.858Z,2.80
2019-06-20T10:27:27.182Z,2.00
2019-06-20T10:30:04.943Z,6.63
2019-06-20T10:32:27.233Z,1.80
2019-06-20T10:34:57.186Z,3.00
2019-06-20T10:37:26.508Z,2.70
2019-06-20T10:39:56.841Z,5.40
2019-06-20T10:42:26.285Z,6.00
2019-06-20T10:44:56.218Z,6.83
2019-06-20T10:47:33.575Z,2.37
2019-06-20T10:49:56.300Z,4.10
2019-06-20T10:52:25.524Z,3.10
2019-06-20T10:54:54.684Z,3.57
2019-06-20T10:57:23.851Z,5.57
2019-06-20T10:59:53.167Z,3.90
2019-06-20T11:02:22.482Z,4.60
2019-06-20T11:04:51.637Z,2.90
2019-06-20T11:07:20.772Z,3.00
2019-06-20T11:09:49.925Z,6.00
2019-06-20T11:12:19.057Z,3.20
2019-06-20T11:14:48.480Z,2.07
2019-06-20T11:17:17.688Z,4.50
2019-06-20T11:19:48.068Z,3.47
2019-06-20T11:22:17.373Z,4.43
2019-06-20T11:24:47.439Z,3.07
2019-06-20T11:27:16.860Z,4.23
2019-06-20T11:29:46.559Z,4.10
2019-06-20T11:32:15.933Z,16.73
2019-06-20T11:34:47.574Z,4.87
2019-06-20T11:37:16.946Z,7.70
2019-06-20T11:39:47.411Z,5.87
2019-06-20T11:42:16.676Z,3.57
2019-06-20T11:44:47.419Z,4.20
2019-06-20T11:47:16.745Z,3.30
2019-06-20T11:49:46.988Z,7.10
2019-06-20T11:52:16.302Z,5.73
2019-06-20T11:54:45.448Z,6.47
2019-06-20T11:57:14.778Z,5.70
2019-06-20T11:59:43.996Z,2.60
2019-06-20T12:02:13.313Z,7.03
2019-06-20T12:04:42.991Z,5.20
2019-06-20T12:07:12.236Z,6.53
2019-06-20T12:09:41.495Z,2.30
2019-06-20T12:12:11.902Z,5.03
2019-06-20T12:14:42.536Z,3.20
2019-06-20T12:17:11.915Z,3.73
2019-06-20T12:19:42.414Z,2.97
2019-06-20T12:22:11.664Z,4.37
2019-06-20T12:24:41.683Z,5.60
2019-06-20T12:27:11.750Z,5.13
2019-06-20T12:29:41.916Z,3.00
2019-06-20T12:32:12.775Z,5.60
2019-06-20T12:34:42.234Z,3.20
2019-06-20T12:37:11.553Z,2.57
2019-06-20T12:39:41.149Z,5.90
2019-06-20T12:42:11.440Z,2.63
2019-06-20T12:44:41.684Z,3.83
2019-06-20T12:47:11.121Z,7.93
2019-06-20T12:49:41.685Z,5.50
2019-06-20T12:52:11.018Z,3.23
2019-06-20T12:54:41.361Z,2.50
2019-06-20T12:57:11.312Z,3.80
2019-06-20T12:59:41.358Z,6.77
2019-06-20T13:02:11.459Z,2.77
2019-06-20T13:04:41.656Z,2.10
2019-06-20T13:07:10.964Z,2.93
2019-06-20T13:09:41.092Z,4.10
2019-06-20T13:12:11.184Z,5.27
2019-06-20T13:14:40.854Z,3.33
2019-06-20T13:17:10.269Z,3.60
2019-06-20T13:19:40.312Z,4.57
2019-06-20T13:22:09.564Z,3.40
2019-06-20T13:24:39.722Z,3.33
2019-06-20T13:27:09.759Z,5.60
2019-06-20T13:29:39.156Z,8.10
2019-06-20T13:32:08.777Z,3.30
2019-06-20T13:34:39.861Z,4.63
2019-06-20T13:37:09.645Z,4.40
2019-06-20T13:39:40.057Z,14.70
2019-06-20T13:42:09.815Z,4.80
2019-06-20T13:44:39.568Z,6.13
2019-06-20T13:47:09.868Z,3.43
2019-06-20T13:49:40.274Z,4.30
2019-06-20T13:52:10.074Z,2.70
2019-06-20T13:54:39.663Z,7.90
2019-06-20T13:57:10.286Z,3.97
2019-06-20T13:59:40.270Z,3.10
2019-06-20T14:02:10.686Z,3.03
2019-06-20T14:04:41.064Z,3.40
2019-06-20T14:07:10.863Z,2.60
2019-06-20T14:09:40.020Z,3.10
2019-06-20T14:12:09.234Z,9.60
2019-06-20T14:14:38.509Z,5.17
2019-06-20T14:17:07.726Z,12.37
2019-06-20T14:19:36.856Z,12.47
2019-06-20T14:22:06.014Z,1.60
2019-06-20T14:24:35.373Z,1.90
2019-06-20T14:27:05.623Z,2.50
2019-06-20T14:29:35.010Z,3.03
2019-06-20T14:32:04.264Z,6.20
2019-06-20T14:34:33.615Z,5.83
2019-06-20T14:37:02.867Z,3.07
2019-06-20T14:39:34.170Z,4.03
2019-06-20T14:42:03.013Z,2.13
2019-06-20T14:44:32.277Z,4.00
2019-06-20T14:47:01.441Z,3.07
2019-06-20T14:49:30.597Z,7.73
2019-06-20T14:51:59.792Z,2.77
2019-06-20T14:54:28.941Z,1.40
2019-06-20T14:56:58.419Z,2.47
2019-06-20T14:59:27.654Z,3.40
2019-06-20T15:01:56.820Z,1.53
2019-06-20T15:04:26.035Z,4.20
2019-06-20T15:06:55.173Z,1.90
2019-06-20T15:09:24.359Z,2.70
2019-06-20T15:11:54.955Z,2.27
2019-06-20T15:14:24.424Z,5.43
2019-06-20T15:16:53.751Z,3.97
2019-06-20T15:19:22.906Z,7.70
2019-06-20T15:21:52.203Z,2.80
2019-06-20T15:24:21.414Z,3.10
2019-06-20T15:26:51.095Z,3.93
2019-06-20T15:29:21.794Z,3.03
2019-06-20T15:31:52.553Z,3.47
2019-06-20T15:34:21.846Z,3.80
2019-06-20T15:36:51.463Z,3.80
2019-06-20T15:39:20.918Z,2.20
2019-06-20T15:41:50.063Z,3.63
2019-06-20T15:44:19.273Z,3.90
2019-06-20T15:46:49.937Z,6.00
2019-06-20T15:49:19.325Z,4.47
2019-06-20T15:51:48.568Z,3.67
2019-06-20T15:54:17.776Z,9.53
2019-06-20T15:56:46.956Z,8.40
2019-06-20T15:59:16.158Z,2.97
2019-06-20T16:01:45.506Z,2.67
2019-06-20T16:04:15.620Z,2.90
2019-06-20T16:06:44.777Z,3.43
2019-06-20T16:09:13.969Z,2.97
2019-06-20T16:11:43.225Z,2.00
2019-06-20T16:14:12.343Z,3.47
2019-06-20T16:16:41.668Z,3.50
2019-06-20T16:19:10.858Z,2.40
2019-06-20T16:21:40.064Z,2.97
2019-06-20T16:24:12.589Z,5.43
2019-06-20T16:26:40.281Z,3.53
2019-06-20T16:29:09.469Z,2.17
2019-06-20T16:31:38.640Z,6.40
2019-06-20T16:34:07.831Z,4.93
2019-06-20T16:36:37.037Z,2.47
2019-06-20T16:39:08.098Z,2.77
2019-06-20T16:41:37.273Z,2.73
2019-06-20T16:44:06.680Z,2.80
2019-06-20T16:46:35.875Z,2.83
2019-06-20T16:49:05.386Z,2.63
2019-06-20T16:51:34.519Z,2.20
2019-06-20T16:54:03.874Z,3.00
2019-06-20T16:56:33.092Z,3.40
2019-06-20T16:59:02.391Z,2.07
2019-06-20T17:01:31.507Z,4.07
2019-06-20T17:04:00.806Z,4.13
2019-06-20T17:06:29.992Z,2.63
2019-06-20T17:08:59.205Z,2.90
2019-06-20T17:11:28.435Z,4.10
2019-06-20T17:13:57.617Z,3.00
2019-06-20T17:16:26.920Z,2.20
2019-06-20T17:18:56.088Z,5.50
2019-06-20T17:21:25.249Z,2.93
2019-06-20T17:23:54.408Z,4.50
2019-06-20T17:26:23.674Z,3.20
2019-06-20T17:28:52.839Z,3.50
2019-06-20T17:31:22.116Z,3.30
2019-06-20T17:33:57.509Z,4.10
2019-06-20T17:36:22.408Z,3.10
2019-06-20T17:38:51.860Z,3.60
2019-06-20T17:41:21.017Z,2.70
2019-06-20T17:43:50.217Z,3.33
2019-06-20T17:46:19.393Z,3.20
2019-06-20T17:48:48.644Z,4.00
2019-06-20T17:51:17.824Z,2.50
2019-06-20T17:53:49.699Z,2.57
2019-06-20T17:56:18.994Z,3.00
2019-06-20T17:58:48.235Z,4.00
2019-06-20T18:01:18.012Z,7.37
2019-06-20T18:03:47.219Z,2.27
2019-06-20T18:06:16.394Z,8.70
2019-06-20T18:08:45.633Z,3.20
2019-06-20T18:11:14.864Z,3.23
2019-06-20T18:13:44.080Z,3.17
2019-06-20T18:16:24.460Z,9.53
2019-06-20T18:18:44.196Z,3.87
2019-06-20T18:21:13.556Z,2.60
2019-06-20T18:23:42.732Z,3.10
2019-06-20T18:26:11.900Z,3.10
2019-06-20T18:28:41.100Z,3.70
2019-06-20T18:31:10.307Z,4.47
2019-06-20T18:33:40.950Z,6.53
2019-06-20T18:36:10.179Z,2.87
2019-06-20T18:38:39.489Z,2.63
2019-06-20T18:41:08.672Z,3.67
2019-06-20T18:43:37.777Z,3.57
2019-06-20T18:46:07.052Z,5.33
2019-06-20T18:48:36.304Z,2.60
2019-06-20T18:51:05.641Z,3.40
2019-06-20T18:53:34.894Z,3.20
2019-06-20T18:56:04.331Z,9.93
2019-06-20T18:58:33.672Z,3.70
2019-06-20T19:01:02.862Z,4.13
2019-06-20T19:03:32.028Z,3.70
2019-06-20T19:06:01.370Z,2.20
2019-06-20T19:08:30.627Z,4.00
2019-06-20T19:10:59.793Z,4.57
2019-06-20T19:13:29.087Z,5.47
2019-06-20T19:15:58.336Z,3.20
2019-06-20T19:18:27.619Z,2.53
2019-06-20T19:20:56.864Z,4.83
2019-06-20T19:23:26.114Z,3.47
2019-06-20T19:25:55.239Z,7.23
2019-06-20T19:28:24.452Z,3.57
2019-06-20T19:30:55.326Z,8.40
2019-06-20T19:33:24.563Z,3.27
2019-06-20T19:35:53.684Z,4.97
2019-06-20T19:38:22.943Z,6.87
2019-06-20T19:40:53.577Z,3.70
2019-06-20T19:43:22.833Z,5.30
2019-06-20T19:45:51.996Z,7.20
2019-06-20T19:48:21.161Z,4.43
2019-06-20T19:50:50.352Z,3.53
2019-06-20T19:53:19.514Z,3.00
2019-06-20T19:55:48.789Z,3.57
2019-06-20T19:58:18.189Z,4.03
2019-06-20T20:00:48.926Z,5.37
2019-06-20T20:03:18.165Z,4.03
2019-06-20T20:05:47.305Z,4.40
2019-06-20T20:08:16.572Z,3.60
2019-06-20T20:10:50.066Z,8.80
2019-06-20T20:13:19.483Z,3.90
2019-06-20T20:15:48.642Z,3.20
2019-06-20T20:18:17.972Z,3.27
2019-06-20T20:20:47.959Z,3.63
2019-06-20T20:23:17.368Z,3.33
2019-06-20T20:25:46.753Z,2.90
2019-06-20T20:28:15.988Z,3.60
2019-06-20T20:30:45.274Z,3.77
2019-06-20T20:33:14.627Z,3.70
2019-06-20T20:35:43.861Z,2.50
2019-06-20T20:38:13.059Z,4.07
2019-06-20T20:40:42.343Z,3.80
2019-06-20T20:43:11.572Z,6.87
2019-06-20T20:45:41.149Z,3.13
2019-06-20T20:48:10.413Z,2.33
2019-06-20T20:50:39.605Z,4.77
2019-06-20T20:53:08.820Z,5.90
2019-06-20T20:55:38.576Z,3.30
2019-06-20T20:58:08.896Z,14.77
2019-06-20T21:00:45.805Z,36.83
2019-06-20T21:03:15.070Z,33.43
2019-06-20T21:05:51.563Z,17.07
2019-06-20T21:08:15.140Z,4.00
2019-06-20T21:10:44.840Z,2.43
2019-06-20T21:13:14.115Z,7.00
2019-06-20T21:15:43.349Z,14.00
2019-06-20T21:18:12.589Z,11.50
2019-06-20T21:20:41.757Z,8.60
2019-06-20T21:23:11.033Z,3.50
2019-06-20T21:25:40.268Z,3.53
2019-06-20T21:28:09.461Z,6.67
2019-06-20T21:30:38.664Z,5.80
2019-06-20T21:33:09.279Z,8.20
2019-06-20T21:35:38.475Z,8.30
2019-06-20T21:38:07.673Z,4.03
2019-06-20T21:40:38.648Z,4.23
2019-06-20T21:43:07.865Z,4.87
2019-06-20T21:45:37.105Z,3.90
2019-06-20T21:48:06.365Z,4.50
2019-06-20T21:50:35.510Z,6.63
2019-06-20T21:53:04.765Z,8.03
2019-06-20T21:55:33.915Z,5.70
2019-06-20T21:58:03.219Z,5.10
2019-06-20T22:00:39.044Z,6.93
2019-06-20T22:03:09.075Z,7.13
2019-06-20T22:05:38.589Z,4.57
2019-06-20T22:08:08.100Z,5.60
2019-06-20T22:10:38.737Z,5.00
2019-06-20T22:13:07.939Z,10.93
2019-06-20T22:15:37.627Z,3.50
2019-06-20T22:18:07.025Z,7.40
2019-06-20T22:20:36.169Z,5.40
2019-06-20T22:23:05.637Z,6.50
2019-06-20T22:25:34.835Z,6.27
2019-06-20T22:28:04.136Z,5.33
2019-06-20T22:30:45.960Z,4.73
2019-06-20T22:33:15.368Z,12.60
2019-06-20T22:35:46.020Z,5.90
2019-06-20T22:38:15.496Z,4.23
2019-06-20T22:40:44.774Z,5.80
2019-06-20T22:43:14.053Z,9.73
2019-06-20T22:45:43.247Z,3.50
2019-06-20T22:48:12.411Z,6.70
2019-06-20T22:50:41.570Z,5.20
2019-06-20T22:53:10.975Z,5.40
2019-06-20T22:55:40.161Z,6.43
2019-06-20T22:58:09.340Z,6.13
2019-06-20T23:00:38.591Z,6.07
2019-06-20T23:03:07.768Z,3.83
2019-06-20T23:05:37.012Z,4.63
2019-06-20T23:08:06.256Z,5.00
2019-06-20T23:10:35.449Z,3.20
2019-06-20T23:13:04.825Z,7.47
2019-06-20T23:15:34.065Z,6.60
2019-06-20T23:18:03.293Z,5.27
2019-06-20T23:20:32.440Z,5.87
2019-06-20T23:23:02.575Z,6.60
2019-06-20T23:25:32.408Z,8.17
2019-06-20T23:28:01.700Z,8.07
2019-06-20T23:30:30.853Z,7.27
2019-06-20T23:33:00.074Z,7.17
2019-06-20T23:35:29.309Z,5.07
2019-06-20T23:37:58.512Z,3.50
2019-06-20T23:40:27.662Z,3.73
2019-06-20T23:42:56.776Z,6.40
2019-06-20T23:45:25.962Z,5.57
2019-06-20T23:47:55.092Z,8.00
2019-06-20T23:50:24.257Z,3.67
2019-06-20T23:52:58.575Z,4.83
2019-06-20T23:55:27.732Z,9.30
2019-06-20T23:57:56.942Z,6.03
